sensor_id;sensor_type;location;lat;lon;timestamp;pressure;altitude;pressure_sealevel;temperature;humidity
43450;BME280;29041;42.266;23.110;2023-07-24T00:01:14;95995.22;;;20.25;64.70
43450;BME280;29041;42.266;23.110;2023-07-24T00:04:03;96014.56;;;20.12;65.01
43450;BME280;29041;42.266;23.110;2023-07-24T00:06:50;96005.03;;;19.85;65.86
43450;BME280;29041;42.266;23.110;2023-07-24T00:09:37;96014.53;;;20.05;65.26
43450;BME280;29041;42.266;23.110;2023-07-24T00:12:26;96015.34;;;19.68;65.09
43450;BME280;29041;42.266;23.110;2023-07-24T00:15:13;96012.91;;;19.56;66.18
43450;BME280;29041;42.266;23.110;2023-07-24T00:18:00;96020.22;;;19.48;66.60
43450;BME280;29041;42.266;23.110;2023-07-24T00:20:47;96021.72;;;19.42;67.15
43450;BME280;29041;42.266;23.110;2023-07-24T00:23:35;96016.44;;;19.22;68.14
43450;BME280;29041;42.266;23.110;2023-07-24T00:26:22;96019.50;;;19.17;68.47
43450;BME280;29041;42.266;23.110;2023-07-24T00:29:10;96006.13;;;19.39;67.47
43450;BME280;29041;42.266;23.110;2023-07-24T00:31:57;96014.09;;;19.58;66.89
43450;BME280;29041;42.266;23.110;2023-07-24T00:34:44;96016.06;;;19.24;69.02
43450;BME280;29041;42.266;23.110;2023-07-24T00:37:32;96014.13;;;19.21;68.76
43450;BME280;29041;42.266;23.110;2023-07-24T00:40:19;96001.53;;;19.09;68.84
43450;BME280;29041;42.266;23.110;2023-07-24T00:43:06;96001.13;;;19.07;68.46
43450;BME280;29041;42.266;23.110;2023-07-24T00:45:56;96010.75;;;19.00;68.79
43450;BME280;29041;42.266;23.110;2023-07-24T00:48:43;96001.06;;;19.03;67.91
43450;BME280;29041;42.266;23.110;2023-07-24T00:51:31;96001.13;;;19.07;67.77
43450;BME280;29041;42.266;23.110;2023-07-24T00:54:20;96002.16;;;18.95;68.23
43450;BME280;29041;42.266;23.110;2023-07-24T00:57:09;96002.38;;;18.82;69.47
43450;BME280;29041;42.266;23.110;2023-07-24T00:59:56;95998.22;;;18.92;69.22
43450;BME280;29041;42.266;23.110;2023-07-24T01:02:44;95994.44;;;19.00;69.13
43450;BME280;29041;42.266;23.110;2023-07-24T01:05:31;95997.00;;;18.90;69.75
43450;BME280;29041;42.266;23.110;2023-07-24T01:08:19;95994.78;;;18.99;69.96
43450;BME280;29041;42.266;23.110;2023-07-24T01:11:11;95996.56;;;19.18;69.44
43450;BME280;29041;42.266;23.110;2023-07-24T01:14:05;95999.53;;;19.06;69.99
43450;BME280;29041;42.266;23.110;2023-07-24T01:16:56;95998.44;;;19.48;69.35
43450;BME280;29041;42.266;23.110;2023-07-24T01:19:49;96001.03;;;19.37;69.12
43450;BME280;29041;42.266;23.110;2023-07-24T01:22:39;95999.16;;;19.07;70.32
43450;BME280;29041;42.266;23.110;2023-07-24T01:25:31;95987.78;;;18.94;70.30
43450;BME280;29041;42.266;23.110;2023-07-24T01:28:22;95999.56;;;18.75;70.96
43450;BME280;29041;42.266;23.110;2023-07-24T01:31:09;95996.84;;;18.75;71.38
43450;BME280;29041;42.266;23.110;2023-07-24T01:33:57;96003.38;;;18.70;72.33
43450;BME280;29041;42.266;23.110;2023-07-24T01:36:44;96002.09;;;18.61;73.00
43450;BME280;29041;42.266;23.110;2023-07-24T01:39:32;96004.66;;;18.50;73.72
43450;BME280;29041;42.266;23.110;2023-07-24T01:42:20;96014.75;;;18.22;75.66
43450;BME280;29041;42.266;23.110;2023-07-24T01:45:09;96002.09;;;18.07;76.78
43450;BME280;29041;42.266;23.110;2023-07-24T01:47:57;96009.28;;;17.96;77.50
43450;BME280;29041;42.266;23.110;2023-07-24T01:50:45;96000.94;;;18.08;77.31
43450;BME280;29041;42.266;23.110;2023-07-24T01:53:32;95992.06;;;18.11;77.17
43450;BME280;29041;42.266;23.110;2023-07-24T01:56:19;96001.31;;;18.06;77.45
43450;BME280;29041;42.266;23.110;2023-07-24T01:59:06;95996.63;;;18.03;77.95
43450;BME280;29041;42.266;23.110;2023-07-24T02:01:55;95998.16;;;18.58;74.88
43450;BME280;29041;42.266;23.110;2023-07-24T02:04:42;95991.69;;;18.70;74.64
43450;BME280;29041;42.266;23.110;2023-07-24T02:07:29;95994.50;;;18.47;75.65
43450;BME280;29041;42.266;23.110;2023-07-24T02:10:16;95985.38;;;18.32;76.47
43450;BME280;29041;42.266;23.110;2023-07-24T02:13:03;95987.59;;;18.22;76.40
43450;BME280;29041;42.266;23.110;2023-07-24T02:15:53;95969.03;;;18.01;78.39
43450;BME280;29041;42.266;23.110;2023-07-24T02:18:42;95990.03;;;18.04;79.53
43450;BME280;29041;42.266;23.110;2023-07-24T02:21:29;95986.50;;;18.04;80.01
43450;BME280;29041;42.266;23.110;2023-07-24T02:24:17;95999.91;;;18.16;78.68
43450;BME280;29041;42.266;23.110;2023-07-24T02:27:05;95998.91;;;18.55;75.76
43450;BME280;29041;42.266;23.110;2023-07-24T02:29:52;95999.75;;;18.63;75.81
43450;BME280;29041;42.266;23.110;2023-07-24T02:32:39;96002.69;;;18.20;76.78
43450;BME280;29041;42.266;23.110;2023-07-24T02:35:28;95995.28;;;17.70;79.47
43450;BME280;29041;42.266;23.110;2023-07-24T02:38:15;95990.22;;;17.26;82.41
43450;BME280;29041;42.266;23.110;2023-07-24T02:41:02;95984.72;;;17.42;83.03
43450;BME280;29041;42.266;23.110;2023-07-24T02:43:49;95979.34;;;17.46;82.93
43450;BME280;29041;42.266;23.110;2023-07-24T02:46:36;95972.88;;;17.31;83.42
43450;BME280;29041;42.266;23.110;2023-07-24T02:49:24;95979.16;;;17.35;83.36
43450;BME280;29041;42.266;23.110;2023-07-24T02:52:12;95976.78;;;17.33;83.25
43450;BME280;29041;42.266;23.110;2023-07-24T02:55:00;95978.38;;;17.34;82.83
43450;BME280;29041;42.266;23.110;2023-07-24T02:57:47;95980.19;;;17.26;82.89
43450;BME280;29041;42.266;23.110;2023-07-24T03:00:34;95981.03;;;17.54;81.09
43450;BME280;29041;42.266;23.110;2023-07-24T03:03:21;95993.56;;;17.39;81.65
43450;BME280;29041;42.266;23.110;2023-07-24T03:06:08;96002.03;;;17.34;82.28
43450;BME280;29041;42.266;23.110;2023-07-24T03:08:57;96003.72;;;17.22;82.33
43450;BME280;29041;42.266;23.110;2023-07-24T03:11:44;96001.63;;;17.12;81.82
43450;BME280;29041;42.266;23.110;2023-07-24T03:14:31;96002.69;;;17.07;82.37
43450;BME280;29041;42.266;23.110;2023-07-24T03:17:18;96006.25;;;17.11;82.20
43450;BME280;29041;42.266;23.110;2023-07-24T03:20:09;96001.56;;;17.08;82.78
43450;BME280;29041;42.266;23.110;2023-07-24T03:22:56;96005.09;;;17.12;83.48
43450;BME280;29041;42.266;23.110;2023-07-24T03:25:47;96000.25;;;17.65;81.81
43450;BME280;29041;42.266;23.110;2023-07-24T03:28:34;95997.19;;;17.47;81.61
43450;BME280;29041;42.266;23.110;2023-07-24T03:31:24;96001.16;;;18.22;77.92
43450;BME280;29041;42.266;23.110;2023-07-24T03:34:11;96008.84;;;17.94;80.07
43450;BME280;29041;42.266;23.110;2023-07-24T03:36:58;96003.97;;;18.03;79.78
43450;BME280;29041;42.266;23.110;2023-07-24T03:39:45;95999.63;;;17.52;82.86
43450;BME280;29041;42.266;23.110;2023-07-24T03:42:34;96002.41;;;17.55;82.91
43450;BME280;29041;42.266;23.110;2023-07-24T03:45:22;96005.81;;;17.52;82.80
43450;BME280;29041;42.266;23.110;2023-07-24T03:48:09;96011.41;;;17.83;82.39
43450;BME280;29041;42.266;23.110;2023-07-24T03:50:58;96013.06;;;17.91;80.71
43450;BME280;29041;42.266;23.110;2023-07-24T03:53:46;96008.91;;;17.74;81.33
43450;BME280;29041;42.266;23.110;2023-07-24T03:56:33;96016.41;;;17.81;81.02
43450;BME280;29041;42.266;23.110;2023-07-24T03:59:22;96018.50;;;17.68;82.07
43450;BME280;29041;42.266;23.110;2023-07-24T04:02:09;96010.03;;;17.73;81.81
43450;BME280;29041;42.266;23.110;2023-07-24T04:04:57;96003.91;;;17.76;81.23
43450;BME280;29041;42.266;23.110;2023-07-24T04:07:44;96011.34;;;17.79;81.10
43450;BME280;29041;42.266;23.110;2023-07-24T04:10:31;96017.28;;;17.88;81.10
43450;BME280;29041;42.266;23.110;2023-07-24T04:13:18;96012.66;;;17.89;80.99
43450;BME280;29041;42.266;23.110;2023-07-24T04:16:07;96013.56;;;17.97;80.51
43450;BME280;29041;42.266;23.110;2023-07-24T04:18:54;96015.97;;;18.55;77.32
43450;BME280;29041;42.266;23.110;2023-07-24T04:21:42;96020.28;;;18.87;76.10
43450;BME280;29041;42.266;23.110;2023-07-24T04:24:29;96020.69;;;18.89;75.06
43450;BME280;29041;42.266;23.110;2023-07-24T04:27:16;96017.97;;;18.59;75.11
43450;BME280;29041;42.266;23.110;2023-07-24T04:30:04;96033.19;;;18.36;76.89
43450;BME280;29041;42.266;23.110;2023-07-24T04:32:52;96028.94;;;18.35;78.14
43450;BME280;29041;42.266;23.110;2023-07-24T04:35:39;96031.72;;;18.16;77.90
43450;BME280;29041;42.266;23.110;2023-07-24T04:38:27;96027.09;;;18.16;78.00
43450;BME280;29041;42.266;23.110;2023-07-24T04:41:14;96028.75;;;18.24;78.05
43450;BME280;29041;42.266;23.110;2023-07-24T04:44:01;96030.53;;;18.13;77.94
43450;BME280;29041;42.266;23.110;2023-07-24T04:46:48;96014.09;;;18.06;77.73
43450;BME280;29041;42.266;23.110;2023-07-24T04:49:37;96019.81;;;17.97;79.07
43450;BME280;29041;42.266;23.110;2023-07-24T04:52:24;96024.50;;;18.00;79.48
43450;BME280;29041;42.266;23.110;2023-07-24T04:55:13;96034.03;;;18.41;77.86
43450;BME280;29041;42.266;23.110;2023-07-24T04:58:01;96022.78;;;18.15;79.08
43450;BME280;29041;42.266;23.110;2023-07-24T05:00:48;96021.28;;;18.45;78.29
43450;BME280;29041;42.266;23.110;2023-07-24T05:03:35;96007.47;;;18.57;77.51
43450;BME280;29041;42.266;23.110;2023-07-24T05:06:23;96023.00;;;18.57;78.37
43450;BME280;29041;42.266;23.110;2023-07-24T05:09:10;96015.25;;;19.20;75.04
43450;BME280;29041;42.266;23.110;2023-07-24T05:11:57;96017.88;;;19.46;73.52
43450;BME280;29041;42.266;23.110;2023-07-24T05:14:44;96024.28;;;19.65;72.16
43450;BME280;29041;42.266;23.110;2023-07-24T05:17:31;96026.22;;;19.64;74.21
43450;BME280;29041;42.266;23.110;2023-07-24T05:20:18;96022.50;;;20.28;70.17
43450;BME280;29041;42.266;23.110;2023-07-24T05:23:07;96024.31;;;20.13;70.41
43450;BME280;29041;42.266;23.110;2023-07-24T05:25:57;96014.25;;;20.18;70.66
43450;BME280;29041;42.266;23.110;2023-07-24T05:28:45;96024.31;;;20.13;70.18
43450;BME280;29041;42.266;23.110;2023-07-24T05:31:33;96020.16;;;20.31;70.57
43450;BME280;29041;42.266;23.110;2023-07-24T05:34:21;96031.09;;;20.38;67.96
43450;BME280;29041;42.266;23.110;2023-07-24T05:37:08;96034.25;;;20.40;66.87
43450;BME280;29041;42.266;23.110;2023-07-24T05:39:56;96029.84;;;20.84;66.72
43450;BME280;29041;42.266;23.110;2023-07-24T05:42:44;96021.34;;;21.00;66.40
43450;BME280;29041;42.266;23.110;2023-07-24T05:45:31;96018.75;;;20.51;67.87
43450;BME280;29041;42.266;23.110;2023-07-24T05:48:18;96013.59;;;21.13;65.36
43450;BME280;29041;42.266;23.110;2023-07-24T05:51:06;96014.31;;;20.95;66.67
43450;BME280;29041;42.266;23.110;2023-07-24T05:53:53;96007.81;;;21.43;65.15
43450;BME280;29041;42.266;23.110;2023-07-24T05:56:41;96004.78;;;21.63;63.68
43450;BME280;29041;42.266;23.110;2023-07-24T05:59:28;96013.00;;;21.99;63.02
43450;BME280;29041;42.266;23.110;2023-07-24T06:02:15;96007.53;;;21.81;62.44
43450;BME280;29041;42.266;23.110;2023-07-24T06:05:03;96007.91;;;21.83;62.39
43450;BME280;29041;42.266;23.110;2023-07-24T06:07:50;96003.59;;;22.47;60.95
43450;BME280;29041;42.266;23.110;2023-07-24T06:10:37;96004.38;;;22.29;60.62
43450;BME280;29041;42.266;23.110;2023-07-24T06:13:26;96009.47;;;22.16;61.29
43450;BME280;29041;42.266;23.110;2023-07-24T06:16:13;96003.59;;;21.75;62.65
43450;BME280;29041;42.266;23.110;2023-07-24T06:19:00;95998.13;;;22.50;60.22
43450;BME280;29041;42.266;23.110;2023-07-24T06:21:47;95993.38;;;22.65;59.39
43450;BME280;29041;42.266;23.110;2023-07-24T06:24:34;95998.03;;;22.83;57.91
43450;BME280;29041;42.266;23.110;2023-07-24T06:27:21;95996.25;;;23.33;56.37
43450;BME280;29041;42.266;23.110;2023-07-24T06:30:10;95990.00;;;23.36;56.37
43450;BME280;29041;42.266;23.110;2023-07-24T06:32:57;95988.81;;;23.37;55.90
43450;BME280;29041;42.266;23.110;2023-07-24T06:35:44;95983.13;;;22.98;54.33
43450;BME280;29041;42.266;23.110;2023-07-24T06:38:31;95993.63;;;23.11;51.68
43450;BME280;29041;42.266;23.110;2023-07-24T06:41:18;95990.38;;;23.38;52.65
43450;BME280;29041;42.266;23.110;2023-07-24T06:44:06;95995.59;;;23.77;51.72
43450;BME280;29041;42.266;23.110;2023-07-24T06:46:55;95993.41;;;24.52;49.31
43450;BME280;29041;42.266;23.110;2023-07-24T06:49:42;95996.78;;;24.71;47.28
43450;BME280;29041;42.266;23.110;2023-07-24T06:52:29;95999.41;;;24.40;47.33
43450;BME280;29041;42.266;23.110;2023-07-24T06:55:16;95995.41;;;24.48;47.49
43450;BME280;29041;42.266;23.110;2023-07-24T06:58:03;96005.69;;;25.13;45.14
43450;BME280;29041;42.266;23.110;2023-07-24T07:00:51;95993.44;;;24.87;44.92
43450;BME280;29041;42.266;23.110;2023-07-24T07:03:39;95992.09;;;25.02;44.92
43450;BME280;29041;42.266;23.110;2023-07-24T07:06:26;95982.78;;;25.24;43.56
43450;BME280;29041;42.266;23.110;2023-07-24T07:09:14;95979.50;;;25.05;44.47
43450;BME280;29041;42.266;23.110;2023-07-24T07:12:01;95980.13;;;25.47;45.03
43450;BME280;29041;42.266;23.110;2023-07-24T07:14:48;95977.25;;;25.82;43.73
43450;BME280;29041;42.266;23.110;2023-07-24T07:17:35;95976.34;;;25.65;43.01
43450;BME280;29041;42.266;23.110;2023-07-24T07:20:24;95961.53;;;25.83;42.57
43450;BME280;29041;42.266;23.110;2023-07-24T07:23:11;95969.53;;;26.24;41.35
43450;BME280;29041;42.266;23.110;2023-07-24T07:25:58;95966.78;;;26.44;40.64
43450;BME280;29041;42.266;23.110;2023-07-24T07:28:45;95964.81;;;26.45;39.52
43450;BME280;29041;42.266;23.110;2023-07-24T07:31:33;95950.34;;;26.61;40.71
43450;BME280;29041;42.266;23.110;2023-07-24T07:34:20;95957.38;;;27.06;40.50
43450;BME280;29041;42.266;23.110;2023-07-24T07:37:08;95958.34;;;27.16;40.68
43450;BME280;29041;42.266;23.110;2023-07-24T07:39:55;95948.47;;;27.35;40.38
43450;BME280;29041;42.266;23.110;2023-07-24T07:42:42;95949.47;;;27.61;39.95
43450;BME280;29041;42.266;23.110;2023-07-24T07:45:30;95952.38;;;27.70;40.75
43450;BME280;29041;42.266;23.110;2023-07-24T07:48:18;95958.06;;;27.63;40.08
43450;BME280;29041;42.266;23.110;2023-07-24T07:51:05;95956.09;;;27.47;39.19
43450;BME280;29041;42.266;23.110;2023-07-24T07:53:54;95961.88;;;27.86;39.06
43450;BME280;29041;42.266;23.110;2023-07-24T07:56:41;95961.88;;;28.36;37.42
43450;BME280;29041;42.266;23.110;2023-07-24T07:59:28;95945.53;;;30.38;34.00
43450;BME280;29041;42.266;23.110;2023-07-24T08:02:15;95944.69;;;33.63;29.34
43450;BME280;29041;42.266;23.110;2023-07-24T08:05:02;95937.06;;;35.15;25.88
43450;BME280;29041;42.266;23.110;2023-07-24T08:07:50;95936.97;;;35.09;25.36
43450;BME280;29041;42.266;23.110;2023-07-24T08:10:38;95934.66;;;35.07;27.01
43450;BME280;29041;42.266;23.110;2023-07-24T08:13:25;95930.31;;;36.96;23.77
43450;BME280;29041;42.266;23.110;2023-07-24T08:16:13;95925.84;;;37.80;22.24
43450;BME280;29041;42.266;23.110;2023-07-24T08:19:04;95924.38;;;37.14;23.02
43450;BME280;29041;42.266;23.110;2023-07-24T08:21:51;95926.50;;;37.63;22.95
43450;BME280;29041;42.266;23.110;2023-07-24T08:24:38;95915.16;;;38.33;21.67
43450;BME280;29041;42.266;23.110;2023-07-24T08:27:26;95914.22;;;34.56;25.46
43450;BME280;29041;42.266;23.110;2023-07-24T08:30:14;95909.47;;;35.17;25.60
43450;BME280;29041;42.266;23.110;2023-07-24T08:33:01;95914.81;;;35.50;25.47
43450;BME280;29041;42.266;23.110;2023-07-24T08:35:58;95898.69;;;35.39;25.12
43450;BME280;29041;42.266;23.110;2023-07-24T08:38:45;95896.72;;;35.46;25.08
43450;BME280;29041;42.266;23.110;2023-07-24T08:41:33;95891.78;;;36.59;23.46
43450;BME280;29041;42.266;23.110;2023-07-24T08:44:23;95884.75;;;37.22;23.32
43450;BME280;29041;42.266;23.110;2023-07-24T08:47:13;95888.66;;;37.04;22.73
43450;BME280;29041;42.266;23.110;2023-07-24T08:50:02;95881.09;;;37.85;21.56
43450;BME280;29041;42.266;23.110;2023-07-24T08:52:49;95882.13;;;38.77;21.77
43450;BME280;29041;42.266;23.110;2023-07-24T08:55:36;95874.56;;;36.66;22.84
43450;BME280;29041;42.266;23.110;2023-07-24T08:58:24;95886.19;;;36.85;23.31
43450;BME280;29041;42.266;23.110;2023-07-24T09:01:13;95878.16;;;38.23;21.38
43450;BME280;29041;42.266;23.110;2023-07-24T09:04:00;95885.66;;;37.07;22.53
43450;BME280;29041;42.266;23.110;2023-07-24T09:06:48;95882.66;;;39.21;21.12
43450;BME280;29041;42.266;23.110;2023-07-24T09:09:36;95888.84;;;37.64;22.03
43450;BME280;29041;42.266;23.110;2023-07-24T09:12:23;95878.06;;;37.89;21.45
43450;BME280;29041;42.266;23.110;2023-07-24T09:15:11;95876.81;;;38.96;20.95
43450;BME280;29041;42.266;23.110;2023-07-24T09:17:59;95873.53;;;38.08;21.29
43450;BME280;29041;42.266;23.110;2023-07-24T09:20:46;95868.00;;;37.33;21.23
43450;BME280;29041;42.266;23.110;2023-07-24T09:23:39;95861.19;;;38.55;21.02
43450;BME280;29041;42.266;23.110;2023-07-24T09:26:28;95857.44;;;37.49;20.59
43450;BME280;29041;42.266;23.110;2023-07-24T09:29:16;95844.03;;;37.64;20.90
43450;BME280;29041;42.266;23.110;2023-07-24T09:32:04;95842.44;;;37.52;20.80
43450;BME280;29041;42.266;23.110;2023-07-24T09:34:53;95836.53;;;36.01;21.10
43450;BME280;29041;42.266;23.110;2023-07-24T09:37:41;95822.28;;;37.04;19.84
43450;BME280;29041;42.266;23.110;2023-07-24T09:40:28;95826.66;;;38.03;17.63
43450;BME280;29041;42.266;23.110;2023-07-24T09:43:16;95823.97;;;38.54;16.81
43450;BME280;29041;42.266;23.110;2023-07-24T09:46:05;95824.81;;;36.70;19.74
43450;BME280;29041;42.266;23.110;2023-07-24T09:48:52;95816.34;;;36.91;20.06
43450;BME280;29041;42.266;23.110;2023-07-24T09:51:43;95818.63;;;36.13;20.87
43450;BME280;29041;42.266;23.110;2023-07-24T09:54:38;95819.38;;;33.96;23.28
43450;BME280;29041;42.266;23.110;2023-07-24T09:57:31;95824.13;;;33.32;23.79
43450;BME280;29041;42.266;23.110;2023-07-24T10:00:21;95818.19;;;33.64;24.45
43450;BME280;29041;42.266;23.110;2023-07-24T10:03:09;95806.78;;;33.86;24.26
43450;BME280;29041;42.266;23.110;2023-07-24T10:05:56;95799.81;;;34.06;23.99
43450;BME280;29041;42.266;23.110;2023-07-24T10:08:46;95802.69;;;34.11;23.94
43450;BME280;29041;42.266;23.110;2023-07-24T10:11:33;95794.25;;;33.81;24.02
43450;BME280;29041;42.266;23.110;2023-07-24T10:14:20;95794.16;;;33.76;23.97
43450;BME280;29041;42.266;23.110;2023-07-24T10:17:08;95785.41;;;33.44;24.43
43450;BME280;29041;42.266;23.110;2023-07-24T10:20:01;95784.81;;;33.88;23.98
43450;BME280;29041;42.266;23.110;2023-07-24T10:22:50;95775.31;;;33.71;24.04
43450;BME280;29041;42.266;23.110;2023-07-24T10:25:39;95775.69;;;33.63;24.43
43450;BME280;29041;42.266;23.110;2023-07-24T10:28:30;95771.69;;;33.79;24.91
43450;BME280;29041;42.266;23.110;2023-07-24T10:31:21;95765.81;;;33.62;24.89
43450;BME280;29041;42.266;23.110;2023-07-24T10:34:09;95775.78;;;33.20;25.67
43450;BME280;29041;42.266;23.110;2023-07-24T10:37:02;95787.97;;;33.23;26.34
43450;BME280;29041;42.266;23.110;2023-07-24T10:39:49;95780.13;;;33.46;26.23
43450;BME280;29041;42.266;23.110;2023-07-24T10:42:37;95760.84;;;33.81;25.95
43450;BME280;29041;42.266;23.110;2023-07-24T10:45:25;95763.25;;;34.58;25.15
43450;BME280;29041;42.266;23.110;2023-07-24T10:48:12;95752.97;;;34.64;24.67
43450;BME280;29041;42.266;23.110;2023-07-24T10:51:06;95755.44;;;34.32;24.71
43450;BME280;29041;42.266;23.110;2023-07-24T10:53:54;95738.84;;;34.53;24.83
43450;BME280;29041;42.266;23.110;2023-07-24T10:56:41;95747.97;;;34.53;24.50
43450;BME280;29041;42.266;23.110;2023-07-24T10:59:40;95738.75;;;34.17;25.62
43450;BME280;29041;42.266;23.110;2023-07-24T11:02:27;95734.22;;;34.20;25.33
43450;BME280;29041;42.266;23.110;2023-07-24T11:05:14;95751.19;;;33.28;26.89
43450;BME280;29041;42.266;23.110;2023-07-24T11:08:09;95736.00;;;33.29;26.75
43450;BME280;29041;42.266;23.110;2023-07-24T11:10:59;95727.03;;;33.59;26.80
43450;BME280;29041;42.266;23.110;2023-07-24T11:13:49;95725.38;;;34.21;26.89
43450;BME280;29041;42.266;23.110;2023-07-24T11:16:48;95717.56;;;33.80;25.78
43450;BME280;29041;42.266;23.110;2023-07-24T11:19:35;95701.09;;;34.37;25.54
43450;BME280;29041;42.266;23.110;2023-07-24T11:22:22;95701.28;;;34.03;25.37
43450;BME280;29041;42.266;23.110;2023-07-24T11:25:10;95712.22;;;34.07;25.79
43450;BME280;29041;42.266;23.110;2023-07-24T11:27:58;95715.75;;;34.67;24.97
43450;BME280;29041;42.266;23.110;2023-07-24T11:30:45;95719.22;;;33.48;25.45
43450;BME280;29041;42.266;23.110;2023-07-24T11:33:34;95703.91;;;33.67;25.89
43450;BME280;29041;42.266;23.110;2023-07-24T11:36:21;95702.88;;;33.80;25.97
43450;BME280;29041;42.266;23.110;2023-07-24T11:39:09;95699.06;;;34.07;25.85
43450;BME280;29041;42.266;23.110;2023-07-24T11:41:56;95697.69;;;33.73;26.29
43450;BME280;29041;42.266;23.110;2023-07-24T11:44:45;95686.47;;;34.42;25.61
43450;BME280;29041;42.266;23.110;2023-07-24T11:47:41;95687.91;;;34.52;25.31
43450;BME280;29041;42.266;23.110;2023-07-24T11:50:30;95678.00;;;34.51;25.55
43450;BME280;29041;42.266;23.110;2023-07-24T11:53:29;95686.78;;;34.44;25.60
43450;BME280;29041;42.266;23.110;2023-07-24T11:56:19;95678.97;;;34.18;25.54
43450;BME280;29041;42.266;23.110;2023-07-24T11:59:11;95688.03;;;33.44;26.06
43450;BME280;29041;42.266;23.110;2023-07-24T12:01:58;95687.69;;;33.66;26.65
43450;BME280;29041;42.266;23.110;2023-07-24T12:04:46;95679.69;;;33.44;26.48
43450;BME280;29041;42.266;23.110;2023-07-24T12:07:35;95685.72;;;33.96;26.13
43450;BME280;29041;42.266;23.110;2023-07-24T12:10:27;95675.44;;;34.32;25.84
43450;BME280;29041;42.266;23.110;2023-07-24T12:13:14;95679.28;;;34.20;25.75
43450;BME280;29041;42.266;23.110;2023-07-24T12:16:01;95679.34;;;34.56;25.20
43450;BME280;29041;42.266;23.110;2023-07-24T12:18:49;95662.97;;;34.13;25.57
43450;BME280;29041;42.266;23.110;2023-07-24T12:21:36;95660.28;;;34.04;25.25
43450;BME280;29041;42.266;23.110;2023-07-24T12:24:24;95657.09;;;34.11;25.30
43450;BME280;29041;42.266;23.110;2023-07-24T12:27:11;95647.47;;;33.82;25.25
43450;BME280;29041;42.266;23.110;2023-07-24T12:29:59;95654.59;;;34.13;25.79
43450;BME280;29041;42.266;23.110;2023-07-24T12:32:46;95655.13;;;34.62;24.52
43450;BME280;29041;42.266;23.110;2023-07-24T12:35:33;95643.25;;;34.16;24.92
43450;BME280;29041;42.266;23.110;2023-07-24T12:38:20;95651.53;;;34.26;25.22
43450;BME280;29041;42.266;23.110;2023-07-24T12:41:09;95630.91;;;34.89;25.33
43450;BME280;29041;42.266;23.110;2023-07-24T12:43:56;95623.84;;;34.73;24.42
43450;BME280;29041;42.266;23.110;2023-07-24T12:46:43;95611.19;;;34.21;24.74
43450;BME280;29041;42.266;23.110;2023-07-24T12:49:30;95634.78;;;34.41;24.47
43450;BME280;29041;42.266;23.110;2023-07-24T12:52:18;95626.34;;;34.71;25.21
43450;BME280;29041;42.266;23.110;2023-07-24T12:55:05;95631.69;;;34.89;24.87
43450;BME280;29041;42.266;23.110;2023-07-24T12:57:54;95625.44;;;34.79;24.76
43450;BME280;29041;42.266;23.110;2023-07-24T13:00:41;95621.38;;;34.95;24.73
43450;BME280;29041;42.266;23.110;2023-07-24T13:03:28;95623.28;;;34.69;23.75
43450;BME280;29041;42.266;23.110;2023-07-24T13:06:16;95624.81;;;34.34;23.84
43450;BME280;29041;42.266;23.110;2023-07-24T13:09:04;95614.75;;;34.57;24.09
43450;BME280;29041;42.266;23.110;2023-07-24T13:11:51;95616.28;;;34.58;24.11
43450;BME280;29041;42.266;23.110;2023-07-24T13:14:41;95611.75;;;34.40;24.22
43450;BME280;29041;42.266;23.110;2023-07-24T13:17:28;95615.28;;;34.41;23.96
43450;BME280;29041;42.266;23.110;2023-07-24T13:20:15;95601.72;;;34.48;24.66
43450;BME280;29041;42.266;23.110;2023-07-24T13:23:03;95610.09;;;34.69;24.08
43450;BME280;29041;42.266;23.110;2023-07-24T13:25:52;95608.63;;;34.53;25.12
43450;BME280;29041;42.266;23.110;2023-07-24T13:28:39;95603.78;;;34.18;24.28
43450;BME280;29041;42.266;23.110;2023-07-24T13:31:28;95603.28;;;34.35;24.71
43450;BME280;29041;42.266;23.110;2023-07-24T13:34:15;95596.16;;;34.69;25.08
43450;BME280;29041;42.266;23.110;2023-07-24T13:37:05;95589.44;;;34.40;24.70
43450;BME280;29041;42.266;23.110;2023-07-24T13:39:53;95589.34;;;34.70;24.54
43450;BME280;29041;42.266;23.110;2023-07-24T13:42:40;95592.25;;;34.82;24.77
43450;BME280;29041;42.266;23.110;2023-07-24T13:45:27;95593.50;;;34.60;24.78
43450;BME280;29041;42.266;23.110;2023-07-24T13:48:15;95578.31;;;34.40;23.93
43450;BME280;29041;42.266;23.110;2023-07-24T13:51:03;95582.00;;;34.52;24.78
43450;BME280;29041;42.266;23.110;2023-07-24T13:53:50;95576.03;;;34.59;24.93
43450;BME280;29041;42.266;23.110;2023-07-24T13:56:37;95560.97;;;34.51;24.66
43450;BME280;29041;42.266;23.110;2023-07-24T13:59:24;95576.31;;;34.61;25.39
43450;BME280;29041;42.266;23.110;2023-07-24T14:02:12;95566.84;;;34.74;24.82
43450;BME280;29041;42.266;23.110;2023-07-24T14:05:00;95571.22;;;34.81;24.75
43450;BME280;29041;42.266;23.110;2023-07-24T14:07:48;95561.94;;;34.48;24.57
43450;BME280;29041;42.266;23.110;2023-07-24T14:10:35;95571.91;;;34.55;24.87
43450;BME280;29041;42.266;23.110;2023-07-24T14:13:22;95567.25;;;34.46;23.87
43450;BME280;29041;42.266;23.110;2023-07-24T14:16:09;95564.97;;;34.65;24.11
43450;BME280;29041;42.266;23.110;2023-07-24T14:18:56;95555.81;;;34.44;24.53
43450;BME280;29041;42.266;23.110;2023-07-24T14:21:45;95562.88;;;34.81;25.21
43450;BME280;29041;42.266;23.110;2023-07-24T14:24:32;95553.44;;;34.57;24.63
43450;BME280;29041;42.266;23.110;2023-07-24T14:27:19;95547.88;;;34.57;25.22
43450;BME280;29041;42.266;23.110;2023-07-24T14:30:09;95544.25;;;34.15;25.05
43450;BME280;29041;42.266;23.110;2023-07-24T14:32:56;95554.78;;;34.41;25.28
43450;BME280;29041;42.266;23.110;2023-07-24T14:35:43;95545.06;;;34.78;24.88
43450;BME280;29041;42.266;23.110;2023-07-24T14:38:32;95544.75;;;34.50;25.59